Time;durP1;ratioP1;P1;durP2;ratioP2;P2;SDS_P1;SDS_P2;PMS_P1;PMS_P2;Temp;Humidity;BMP_temperature;BMP_pressure;BME280_temperature;BME280_humidity;BME280_pressure;Samples;Min_cycle;Max_cycle;Signal;HPM_P1;HPM_P2
2023/12/11 00:00:19;;;;;;;64.63;24.10;;;;;;;;;;5075502;28;20452;-73
2023/12/11 00:02:45;;;;;;;77.10;25.73;;;;;;;;;;5076236;28;20432;-73
2023/12/11 00:05:14;;;;;;;78.60;26.00;;;;;;;;;;5094548;28;20874;-73
2023/12/11 00:07:40;;;;;;;76.77;26.23;;;;;;;;;;5076369;28;20427;-73
2023/12/11 00:10:07;;;;;;;66.33;25.13;;;;;;;;;;5094208;28;20418;-73
2023/12/11 00:12:34;;;;;;;80.87;26.40;;;;;;;;;;5059824;28;20523;-73
2023/12/11 00:15:01;;;;;;;93.00;27.13;;;;;;;;;;5059305;28;20839;-73
2023/12/11 00:17:28;;;;;;;71.60;25.43;;;;;;;;;;5093899;28;20506;-73
2023/12/11 00:19:55;;;;;;;73.60;24.53;;;;;;;;;;5076201;28;20473;-72
2023/12/11 00:22:22;;;;;;;72.70;25.77;;;;;;;;;;5060007;28;20852;-73
2023/12/11 00:24:49;;;;;;;65.27;24.33;;;;;;;;;;5093741;28;20531;-73
2023/12/11 00:27:15;;;;;;;85.17;24.73;;;;;;;;;;5076440;28;20441;-73
2023/12/11 00:29:42;;;;;;;84.80;26.57;;;;;;;;;;5059509;28;20417;-74
2023/12/11 00:32:08;;;;;;;70.43;23.53;;;;;;;;;;5059215;28;20423;-73
2023/12/11 00:34:35;;;;;;;71.47;24.83;;;;;;;;;;5093040;28;20538;-73
2023/12/11 00:37:02;;;;;;;71.63;24.87;;;;;;;;;;5093946;28;20427;-73
2023/12/11 00:39:29;;;;;;;69.53;24.97;;;;;;;;;;5093578;28;20483;-73
2023/12/11 00:41:56;;;;;;;70.67;24.50;;;;;;;;;;5094014;28;20902;-74
2023/12/11 00:44:22;;;;;;;71.93;23.83;;;;;;;;;;5076314;28;20416;-74
2023/12/11 00:46:49;;;;;;;72.50;23.73;;;;;;;;;;5059272;28;20451;-73
2023/12/11 00:49:15;;;;;;;78.97;23.87;;;;;;;;;;5093641;28;20424;-73
2023/12/11 00:51:42;;;;;;;83.80;24.30;;;;;;;;;;5076779;28;20512;-73
2023/12/11 00:54:09;;;;;;;63.07;22.23;;;;;;;;;;5093930;28;20457;-74
2023/12/11 00:56:36;;;;;;;66.83;22.33;;;;;;;;;;5076146;28;20948;-73
2023/12/11 00:59:02;;;;;;;76.60;25.13;;;;;;;;;;5075560;28;20458;-73
2023/12/11 01:01:29;;;;;;;59.67;21.53;;;;;;;;;;5075850;28;20434;-73
2023/12/11 01:03:56;;;;;;;70.97;23.47;;;;;;;;;;5075791;28;20434;-74
2023/12/11 01:06:23;;;;;;;79.00;23.53;;;;;;;;;;5059327;28;20426;-74
2023/12/11 01:08:49;;;;;;;58.83;22.40;;;;;;;;;;5094078;28;20422;-74
2023/12/11 01:11:16;;;;;;;83.53;22.53;;;;;;;;;;5075420;28;20419;-74
2023/12/11 01:53:30;;;;;;;51.57;20.07;;;;;;;;;;5096332;28;20454;-75
2023/12/11 01:55:57;;;;;;;58.57;19.70;;;;;;;;;;5096410;28;20423;-75
2023/12/11 01:58:24;;;;;;;52.20;19.67;;;;;;;;;;5061832;28;20531;-75
2023/12/11 02:00:51;;;;;;;45.53;19.10;;;;;;;;;;5061921;28;20933;-75
2023/12/11 02:03:18;;;;;;;41.97;19.50;;;;;;;;;;5061737;28;20870;-75
2023/12/11 02:05:45;;;;;;;43.80;18.57;;;;;;;;;;5096238;28;20514;-75
2023/12/11 02:08:12;;;;;;;43.37;19.57;;;;;;;;;;5062285;28;20455;-75
2023/12/11 02:10:39;;;;;;;45.13;18.37;;;;;;;;;;5078465;28;20901;-75
2023/12/11 02:13:06;;;;;;;38.97;18.13;;;;;;;;;;5096073;28;20416;-75
2023/12/11 02:15:42;;;;;;;38.60;18.13;;;;;;;;;;5078305;28;20534;-75
2023/12/11 02:18:09;;;;;;;38.43;18.03;;;;;;;;;;5078569;28;20902;-75
2023/12/11 02:20:40;;;;;;;38.87;18.23;;;;;;;;;;5094919;28;20467;-75
2023/12/11 02:23:09;;;;;;;35.33;17.07;;;;;;;;;;5095377;28;20392;-75
2023/12/11 02:26:00;;;;;;;40.90;17.30;;;;;;;;;;5080535;28;20391;-75
2023/12/11 02:28:27;;;;;;;35.90;17.20;;;;;;;;;;5077990;28;20419;-75
2023/12/11 02:31:12;;;;;;;35.23;17.23;;;;;;;;;;5095786;28;20366;-75
2023/12/11 02:33:38;;;;;;;39.10;17.03;;;;;;;;;;5096226;28;20424;-75
2023/12/11 02:36:05;;;;;;;31.03;16.03;;;;;;;;;;5077791;28;20473;-75
2023/12/11 02:38:32;;;;;;;35.97;16.97;;;;;;;;;;5077581;28;20435;-75
2023/12/11 02:40:59;;;;;;;35.73;16.73;;;;;;;;;;5077848;28;20469;-75
2023/12/11 02:43:26;;;;;;;31.37;15.93;;;;;;;;;;5057007;28;20424;-75
2023/12/11 02:45:52;;;;;;;35.43;16.30;;;;;;;;;;5075113;28;20432;-75
2023/12/11 02:48:19;;;;;;;31.90;16.97;;;;;;;;;;5041403;28;20852;-75
2023/12/11 02:50:46;;;;;;;38.20;17.93;;;;;;;;;;5041242;28;20448;-75
2023/12/11 02:53:13;;;;;;;38.23;16.37;;;;;;;;;;5075191;28;20443;-75
2023/12/11 02:55:39;;;;;;;39.63;17.57;;;;;;;;;;5057282;28;20431;-75
2023/12/11 02:58:06;;;;;;;42.00;16.93;;;;;;;;;;5073895;28;20515;-75
2023/12/11 03:00:33;;;;;;;42.40;18.07;;;;;;;;;;5057167;28;20501;-75
2023/12/11 03:03:00;;;;;;;38.23;18.03;;;;;;;;;;5057840;28;20428;-75
2023/12/11 03:05:27;;;;;;;57.70;19.47;;;;;;;;;;5057522;28;20860;-76
2023/12/11 03:07:53;;;;;;;45.47;18.23;;;;;;;;;;5057162;28;20748;-75
2023/12/11 03:10:20;;;;;;;39.87;17.53;;;;;;;;;;5041327;28;20428;-75
2023/12/11 03:12:47;;;;;;;38.30;17.23;;;;;;;;;;5073675;28;20446;-75
2023/12/11 03:15:13;;;;;;;37.10;17.67;;;;;;;;;;5056996;28;20446;-75
2023/12/11 03:17:40;;;;;;;39.80;16.50;;;;;;;;;;5074962;28;20416;-75
2023/12/11 03:20:24;;;;;;;31.97;16.23;;;;;;;;;;5045564;28;20549;-75
2023/12/11 03:22:51;;;;;;;34.37;15.97;;;;;;;;;;5075504;28;20708;-75
2023/12/11 03:25:35;;;;;;;31.97;14.97;;;;;;;;;;5074480;28;20373;-75
2023/12/11 03:28:01;;;;;;;31.07;14.40;;;;;;;;;;5057233;28;20511;-77
2023/12/11 03:30:45;;;;;;;30.20;15.13;;;;;;;;;;5074485;28;20400;-75
2023/12/11 03:33:12;;;;;;;33.97;16.03;;;;;;;;;;5074435;28;20479;-76
2023/12/11 03:35:56;;;;;;;28.13;13.90;;;;;;;;;;5073680;28;20368;-76
2023/12/11 03:38:23;;;;;;;27.80;14.37;;;;;;;;;;5040101;28;20445;-75
2023/12/11 03:40:50;;;;;;;31.47;14.40;;;;;;;;;;5056487;28;20555;-76
2023/12/11 03:43:17;;;;;;;28.20;14.20;;;;;;;;;;5056365;28;20534;-75
2023/12/11 03:45:43;;;;;;;29.10;14.60;;;;;;;;;;5039859;28;20527;-76
2023/12/11 03:48:28;;;;;;;29.93;14.23;;;;;;;;;;5059773;28;20369;-76
2023/12/11 03:50:56;;;;;;;26.53;13.87;;;;;;;;;;5073569;28;20456;-75
2023/12/11 03:53:39;;;;;;;26.63;13.20;;;;;;;;;;5074753;28;20472;-76
2023/12/11 03:56:06;;;;;;;26.93;13.67;;;;;;;;;;5073194;28;20958;-75
2023/12/11 03:58:33;;;;;;;24.37;12.07;;;;;;;;;;5072954;28;20445;-75
2023/12/11 04:00:59;;;;;;;26.57;13.80;;;;;;;;;;5074001;28;20448;-75
2023/12/11 04:03:26;;;;;;;26.20;13.27;;;;;;;;;;5072809;28;20454;-76
2023/12/11 04:05:53;;;;;;;26.50;13.10;;;;;;;;;;5073552;28;20906;-74
2023/12/11 04:08:20;;;;;;;26.13;13.10;;;;;;;;;;5056496;28;20477;-76
2023/12/11 04:10:46;;;;;;;26.70;14.17;;;;;;;;;;5056430;28;20539;-74
2023/12/11 04:13:13;;;;;;;24.53;13.07;;;;;;;;;;5073926;28;20522;-75
2023/12/11 04:15:40;;;;;;;28.60;13.40;;;;;;;;;;5072875;28;20533;-75
2023/12/11 04:18:07;;;;;;;26.83;13.73;;;;;;;;;;5073773;28;20428;-74
2023/12/11 04:20:34;;;;;;;29.23;13.37;;;;;;;;;;5065990;28;20477;-72
2023/12/11 04:23:01;;;;;;;25.97;13.27;;;;;;;;;;5084731;28;20455;-74
2023/12/11 04:25:28;;;;;;;23.37;12.63;;;;;;;;;;5066680;28;20423;-72
2023/12/11 04:27:54;;;;;;;26.40;13.20;;;;;;;;;;5084688;28;20715;-73
2023/12/11 04:30:21;;;;;;;24.60;12.87;;;;;;;;;;5084885;28;20454;-72
2023/12/11 04:32:48;;;;;;;22.17;12.03;;;;;;;;;;5084575;28;20760;-74
2023/12/11 04:35:32;;;;;;;22.97;11.43;;;;;;;;;;5069187;28;20396;-70
2023/12/11 04:37:59;;;;;;;24.93;11.73;;;;;;;;;;5067107;28;20759;-72
2023/12/11 04:40:27;;;;;;;24.67;12.50;;;;;;;;;;5050027;28;20973;-72
2023/12/11 04:42:53;;;;;;;20.27;11.43;;;;;;;;;;5084445;28;20424;-73
2023/12/11 04:45:20;;;;;;;21.83;12.00;;;;;;;;;;5066118;28;20863;-73
2023/12/11 04:47:47;;;;;;;19.73;11.10;;;;;;;;;;5069879;28;20416;-73
2023/12/11 04:50:13;;;;;;;21.10;10.97;;;;;;;;;;5070753;28;20780;-74
2023/12/11 04:52:40;;;;;;;18.13;9.93;;;;;;;;;;5053958;28;20561;-72
2023/12/11 04:55:07;;;;;;;19.13;10.03;;;;;;;;;;5088075;28;20932;-71
2023/12/11 04:57:34;;;;;;;19.03;10.43;;;;;;;;;;5087835;28;20454;-72
2023/12/11 05:00:01;;;;;;;19.87;10.07;;;;;;;;;;5087604;28;20616;-72
2023/12/11 05:02:27;;;;;;;20.10;10.17;;;;;;;;;;5087479;28;20428;-73
2023/12/11 05:04:54;;;;;;;20.07;10.17;;;;;;;;;;5087713;28;20894;-72
2023/12/11 05:07:21;;;;;;;18.00;9.83;;;;;;;;;;5069234;28;20404;-72
2023/12/11 05:09:47;;;;;;;17.97;9.57;;;;;;;;;;5088201;28;20427;-71
2023/12/11 05:12:14;;;;;;;18.57;9.30;;;;;;;;;;5088231;28;20419;-72
2023/12/11 05:14:41;;;;;;;20.13;9.53;;;;;;;;;;5052975;28;20431;-72
2023/12/11 05:17:08;;;;;;;19.77;10.07;;;;;;;;;;5087283;28;20454;-75
2023/12/11 05:19:35;;;;;;;19.80;9.50;;;;;;;;;;5087291;28;20874;-74
2023/12/11 05:22:02;;;;;;;19.40;10.60;;;;;;;;;;5076048;28;20562;-73
2023/12/11 05:24:29;;;;;;;15.80;9.33;;;;;;;;;;5068780;28;20422;-72
2023/12/11 05:26:56;;;;;;;20.17;9.43;;;;;;;;;;5087282;28;20543;-74
2023/12/11 05:29:22;;;;;;;19.53;9.53;;;;;;;;;;5087270;28;20432;-73
2023/12/11 05:31:49;;;;;;;20.57;10.03;;;;;;;;;;5068754;28;21735;-74
2023/12/11 05:34:16;;;;;;;19.97;10.40;;;;;;;;;;5069246;28;20423;-73
2023/12/11 05:36:43;;;;;;;19.67;9.70;;;;;;;;;;5085832;28;20468;-74
2023/12/11 05:39:10;;;;;;;21.60;11.17;;;;;;;;;;5069066;28;20935;-72
2023/12/11 05:41:36;;;;;;;20.03;10.83;;;;;;;;;;5087837;28;20512;-75
2023/12/11 05:44:03;;;;;;;18.23;10.63;;;;;;;;;;5069381;28;20473;-75
2023/12/11 05:46:32;;;;;;;20.43;10.30;;;;;;;;;;5069807;28;20424;-74
2023/12/11 05:48:59;;;;;;;19.33;10.03;;;;;;;;;;5087565;28;20417;-74
2023/12/11 05:51:27;;;;;;;18.33;9.43;;;;;;;;;;5087481;28;20416;-75
2023/12/11 05:54:12;;;;;;;20.63;9.47;;;;;;;;;;5071527;28;20438;-75
2023/12/11 05:56:38;;;;;;;21.67;10.53;;;;;;;;;;5069175;28;20426;-74
2023/12/11 05:59:05;;;;;;;18.80;10.20;;;;;;;;;;5051738;28;21008;-73
2023/12/11 06:01:32;;;;;;;19.07;10.37;;;;;;;;;;5068657;28;20460;-72
2023/12/11 06:04:00;;;;;;;21.70;10.77;;;;;;;;;;5087025;28;20447;-73
2023/12/11 06:06:27;;;;;;;20.73;10.93;;;;;;;;;;5085818;28;20447;-74
2023/12/11 06:08:57;;;;;;;19.23;11.30;;;;;;;;;;5069777;28;20476;-74
2023/12/11 06:11:26;;;;;;;20.23;11.17;;;;;;;;;;5070006;28;20423;-73
2023/12/11 06:13:53;;;;;;;21.67;10.80;;;;;;;;;;5087219;28;20430;-73
2023/12/11 06:16:20;;;;;;;24.00;12.00;;;;;;;;;;5087358;28;20436;-72
2023/12/11 06:18:47;;;;;;;19.83;10.73;;;;;;;;;;5086972;28;20423;-71
2023/12/11 06:21:20;;;;;;;20.50;11.10;;;;;;;;;;5056096;28;21005;-73
2023/12/11 06:23:47;;;;;;;27.33;12.27;;;;;;;;;;5086762;28;20473;-75
2023/12/11 06:26:26;;;;;;;23.53;12.00;;;;;;;;;;5069504;28;20416;-71
2023/12/11 06:28:53;;;;;;;29.23;12.83;;;;;;;;;;5068993;28;20181;-71
2023/12/11 06:31:20;;;;;;;21.80;11.50;;;;;;;;;;5068582;28;20296;-71
2023/12/11 06:33:46;;;;;;;23.07;10.93;;;;;;;;;;5068652;28;20480;-70
2023/12/11 06:36:13;;;;;;;25.23;12.30;;;;;;;;;;5052135;28;20538;-72
2023/12/11 06:38:41;;;;;;;28.47;12.90;;;;;;;;;;5052413;28;20431;-73
2023/12/11 06:41:08;;;;;;;23.17;12.83;;;;;;;;;;5068773;28;20554;-72
2023/12/11 06:43:38;;;;;;;24.33;12.47;;;;;;;;;;5068456;28;20434;-73
2023/12/11 06:46:05;;;;;;;24.33;12.73;;;;;;;;;;5069016;28;20423;-73
2023/12/11 06:48:33;;;;;;;23.27;12.30;;;;;;;;;;5086563;28;20521;-72
2023/12/11 06:51:01;;;;;;;22.83;11.90;;;;;;;;;;5051479;28;20512;-73
2023/12/11 06:53:30;;;;;;;23.87;11.93;;;;;;;;;;5067730;28;20460;-73
2023/12/11 06:55:57;;;;;;;22.63;11.27;;;;;;;;;;5051451;28;20197;-74
2023/12/11 06:58:25;;;;;;;20.23;11.47;;;;;;;;;;5064175;28;21050;-74
2023/12/11 07:00:52;;;;;;;20.77;11.53;;;;;;;;;;5067493;28;20460;-74
2023/12/11 07:03:19;;;;;;;24.37;12.27;;;;;;;;;;5084664;28;20424;-75
2023/12/11 07:05:47;;;;;;;24.00;12.70;;;;;;;;;;5068698;28;20909;-75
2023/12/11 07:08:15;;;;;;;26.47;12.83;;;;;;;;;;5084766;28;20243;-75
2023/12/11 07:10:41;;;;;;;25.97;13.33;;;;;;;;;;5068420;28;20476;-76
2023/12/11 07:13:08;;;;;;;24.90;12.50;;;;;;;;;;5067989;28;20424;-78
2023/12/11 07:15:35;;;;;;;21.77;12.33;;;;;;;;;;5067980;28;20205;-72
2023/12/11 07:18:02;;;;;;;32.60;14.00;;;;;;;;;;5085917;28;20196;-72
2023/12/11 07:20:33;;;;;;;27.83;14.33;;;;;;;;;;5055600;28;20459;-72
2023/12/11 07:23:01;;;;;;;25.87;13.63;;;;;;;;;;5086444;28;20412;-76
2023/12/11 07:25:27;;;;;;;30.13;14.30;;;;;;;;;;5051443;28;20705;-74
2023/12/11 07:27:54;;;;;;;30.30;14.17;;;;;;;;;;5067479;28;20442;-78
2023/12/11 07:30:21;;;;;;;31.60;15.00;;;;;;;;;;5068681;28;20467;-76
2023/12/11 07:32:48;;;;;;;30.43;15.00;;;;;;;;;;5068325;28;20424;-75
2023/12/11 07:39:16;;;;;;;26.17;14.73;;;;;;;;;;5085692;28;20770;-72
2023/12/11 07:41:44;;;;;;;24.50;13.97;;;;;;;;;;5083838;28;20554;-74
2023/12/11 07:44:11;;;;;;;23.40;14.07;;;;;;;;;;5062260;28;20440;-74
2023/12/11 07:46:38;;;;;;;23.67;13.20;;;;;;;;;;5065946;28;20420;-77
2023/12/11 07:49:08;;;;;;;21.60;12.13;;;;;;;;;;5074811;28;20396;-76
2023/12/11 07:51:35;;;;;;;24.73;12.93;;;;;;;;;;5058845;28;20535;-72
2023/12/11 07:58:06;;;;;;;21.07;12.47;;;;;;;;;;5074220;28;20493;-74
2023/12/11 08:00:33;;;;;;;22.50;12.90;;;;;;;;;;5074185;28;20451;-76
2023/12/11 08:06:54;;;;;;;19.97;11.97;;;;;;;;;;5094384;28;20148;-76
2023/12/11 08:09:21;;;;;;;19.63;11.93;;;;;;;;;;5094242;28;20634;-76
2023/12/11 08:11:49;;;;;;;20.77;12.60;;;;;;;;;;5076385;28;20543;-76
2023/12/11 08:14:16;;;;;;;23.23;12.60;;;;;;;;;;5094574;28;20226;-76
2023/12/11 08:17:00;;;;;;;20.03;12.33;;;;;;;;;;5079552;28;20423;-74
2023/12/11 08:19:26;;;;;;;20.50;12.60;;;;;;;;;;5094516;28;20231;-76
2023/12/11 08:21:54;;;;;;;23.63;13.23;;;;;;;;;;5071298;28;20460;-74
2023/12/11 08:24:21;;;;;;;21.47;13.27;;;;;;;;;;5073292;28;20521;-75
2023/12/11 08:26:47;;;;;;;22.53;13.63;;;;;;;;;;5074329;28;20438;-75
2023/12/11 08:29:31;;;;;;;21.23;12.83;;;;;;;;;;5073591;28;20377;-75
2023/12/11 08:31:59;;;;;;;22.00;12.70;;;;;;;;;;5072876;28;20419;-75
2023/12/11 08:34:26;;;;;;;22.17;12.77;;;;;;;;;;5073640;28;20768;-75
2023/12/11 08:36:53;;;;;;;24.77;13.47;;;;;;;;;;5073387;28;20190;-75
2023/12/11 08:39:21;;;;;;;20.33;13.07;;;;;;;;;;5085875;28;20435;-74
2023/12/11 08:42:05;;;;;;;21.67;13.13;;;;;;;;;;5093793;28;20936;-75
2023/12/11 08:44:32;;;;;;;24.20;13.43;;;;;;;;;;5094151;28;20181;-75
2023/12/11 08:46:59;;;;;;;23.03;13.93;;;;;;;;;;5075961;28;20425;-75
2023/12/11 08:49:26;;;;;;;34.10;17.43;;;;;;;;;;5094375;28;20178;-76
2023/12/11 08:51:53;;;;;;;57.10;27.37;;;;;;;;;;5094141;28;20248;-76
2023/12/11 08:54:37;;;;;;;29.63;16.13;;;;;;;;;;5078624;28;20170;-75
2023/12/11 08:57:06;;;;;;;29.27;17.23;;;;;;;;;;5093765;28;20231;-75
2023/12/11 08:59:33;;;;;;;35.10;18.87;;;;;;;;;;5094602;28;20196;-76
2023/12/11 09:01:59;;;;;;;35.83;20.07;;;;;;;;;;5093318;28;20205;-75
2023/12/11 09:04:26;;;;;;;31.63;17.47;;;;;;;;;;5076407;28;20201;-75
2023/12/11 09:07:10;;;;;;;28.40;18.40;;;;;;;;;;5093855;28;20478;-75
2023/12/11 09:09:38;;;;;;;33.77;18.83;;;;;;;;;;5093599;28;20186;-76
2023/12/11 09:12:05;;;;;;;36.50;19.90;;;;;;;;;;5093851;28;20182;-76
2023/12/11 09:14:41;;;;;;;33.57;17.70;;;;;;;;;;5093968;28;20392;-76
2023/12/11 09:17:08;;;;;;;32.57;18.10;;;;;;;;;;5075584;28;20522;-75
2023/12/11 09:19:34;;;;;;;31.30;16.47;;;;;;;;;;5094284;28;20196;-76
2023/12/11 09:22:16;;;;;;;27.07;15.90;;;;;;;;;;5094094;28;20579;-76
2023/12/11 09:24:43;;;;;;;29.23;16.73;;;;;;;;;;5093907;28;20188;-76
2023/12/11 09:27:10;;;;;;;29.60;16.93;;;;;;;;;;5093556;28;20185;-76
2023/12/11 09:29:37;;;;;;;30.27;17.30;;;;;;;;;;5075947;28;20264;-76
2023/12/11 09:32:04;;;;;;;28.13;15.70;;;;;;;;;;5075816;28;20185;-75
2023/12/11 09:34:31;;;;;;;29.37;16.37;;;;;;;;;;5061024;28;20575;-76
2023/12/11 09:36:58;;;;;;;26.30;14.90;;;;;;;;;;5057477;28;20601;-76
2023/12/11 09:39:25;;;;;;;26.17;14.77;;;;;;;;;;5070779;28;20537;-75
2023/12/11 09:41:52;;;;;;;22.43;14.97;;;;;;;;;;5078873;28;20213;-75
2023/12/11 09:44:19;;;;;;;22.37;13.83;;;;;;;;;;5079523;28;20431;-76
2023/12/11 09:47:10;;;;;;;22.57;14.40;;;;;;;;;;5096857;28;20249;-75
2023/12/11 09:49:37;;;;;;;21.53;13.23;;;;;;;;;;5079697;28;20243;-75
2023/12/11 09:52:04;;;;;;;22.57;13.77;;;;;;;;;;5096646;28;20524;-75
2023/12/11 09:54:31;;;;;;;21.67;13.03;;;;;;;;;;5097137;28;20181;-76
2023/12/11 09:56:58;;;;;;;21.03;13.30;;;;;;;;;;5097146;28;20213;-75
2023/12/11 09:59:42;;;;;;;22.13;14.00;;;;;;;;;;5081759;28;20292;-76
2023/12/11 10:02:15;;;;;;;21.37;13.27;;;;;;;;;;5096585;28;20201;-76
2023/12/11 10:05:02;;;;;;;21.10;12.87;;;;;;;;;;5078984;28;20404;-77
2023/12/11 10:07:29;;;;;;;21.93;13.20;;;;;;;;;;5096552;28;20512;-76
2023/12/11 10:09:56;;;;;;;23.60;14.30;;;;;;;;;;5078660;28;20910;-76
2023/12/11 10:12:23;;;;;;;22.03;13.30;;;;;;;;;;5062695;28;20201;-76
2023/12/11 10:15:00;;;;;;;21.93;14.30;;;;;;;;;;5078802;28;20185;-76
2023/12/11 10:17:27;;;;;;;23.67;14.07;;;;;;;;;;5096955;28;20176;-76
2023/12/11 10:19:54;;;;;;;22.93;14.00;;;;;;;;;;5096994;28;20185;-76
2023/12/11 10:22:27;;;;;;;29.03;16.27;;;;;;;;;;5096555;28;20237;-76
2023/12/11 10:24:54;;;;;;;32.63;16.77;;;;;;;;;;5078575;28;20615;-76
2023/12/11 10:27:24;;;;;;;32.73;17.63;;;;;;;;;;5096382;28;20642;-76
2023/12/11 10:30:05;;;;;;;30.17;17.73;;;;;;;;;;5096365;28;20548;-77
2023/12/11 10:32:32;;;;;;;28.33;16.20;;;;;;;;;;5078636;28;20231;-77
2023/12/11 10:34:59;;;;;;;25.27;15.20;;;;;;;;;;5096209;28;20426;-76
2023/12/11 10:37:32;;;;;;;28.67;16.10;;;;;;;;;;5061480;28;20243;-77
2023/12/11 10:43:59;;;;;;;35.07;18.37;;;;;;;;;;5095541;28;20156;-76
2023/12/11 10:46:42;;;;;;;41.57;19.40;;;;;;;;;;5065906;28;20161;-77
2023/12/11 10:49:09;;;;;;;43.63;20.97;;;;;;;;;;5095002;28;20536;-76
2023/12/11 10:51:36;;;;;;;40.80;19.17;;;;;;;;;;5077731;28;20178;-76
2023/12/11 10:54:05;;;;;;;34.07;19.17;;;;;;;;;;5096226;28;20742;-76
2023/12/11 10:56:32;;;;;;;37.20;18.37;;;;;;;;;;5096371;28;20184;-76
2023/12/11 10:58:59;;;;;;;31.20;16.77;;;;;;;;;;5095762;28;20182;-76
2023/12/11 11:01:26;;;;;;;29.80;15.97;;;;;;;;;;5095320;28;20205;-76
2023/12/11 11:03:53;;;;;;;27.00;14.67;;;;;;;;;;5095426;28;20178;-76
2023/12/11 11:06:20;;;;;;;27.93;15.57;;;;;;;;;;5095736;28;20185;-77
2023/12/11 11:08:52;;;;;;;28.30;16.97;;;;;;;;;;5077593;28;20234;-76
2023/12/11 11:11:23;;;;;;;27.30;16.13;;;;;;;;;;5095745;28;20253;-76
2023/12/11 11:14:04;;;;;;;23.00;14.37;;;;;;;;;;5078484;28;20220;-76
2023/12/11 11:16:50;;;;;;;26.03;14.47;;;;;;;;;;5077708;28;20676;-76
2023/12/11 11:19:35;;;;;;;25.57;15.10;;;;;;;;;;5094233;28;20173;-76
2023/12/11 11:22:03;;;;;;;25.37;13.93;;;;;;;;;;5078035;28;20291;-76
2023/12/11 11:24:31;;;;;;;27.37;13.70;;;;;;;;;;5093878;28;20636;-76
2023/12/11 11:26:57;;;;;;;27.17;15.20;;;;;;;;;;5094884;28;20185;-76
2023/12/11 11:29:41;;;;;;;26.00;16.33;;;;;;;;;;5094710;28;20192;-76
2023/12/11 11:32:08;;;;;;;29.80;16.70;;;;;;;;;;5077148;28;20209;-76
2023/12/11 11:34:41;;;;;;;27.67;15.50;;;;;;;;;;5075648;28;20532;-76
2023/12/11 11:37:17;;;;;;;23.93;14.53;;;;;;;;;;5095181;28;20166;-77
2023/12/11 11:40:04;;;;;;;26.20;14.83;;;;;;;;;;5095258;28;20173;-76
2023/12/11 11:42:32;;;;;;;26.20;14.93;;;;;;;;;;5076628;28;20308;-76
2023/12/11 11:45:16;;;;;;;25.60;14.73;;;;;;;;;;5094421;28;20605;-76
2023/12/11 11:47:42;;;;;;;24.50;15.53;;;;;;;;;;5077589;28;20185;-77
2023/12/11 11:50:09;;;;;;;25.63;15.50;;;;;;;;;;5094418;28;20234;-76
2023/12/11 11:52:38;;;;;;;25.23;15.80;;;;;;;;;;5076571;28;20221;-77
2023/12/11 11:55:37;;;;;;;35.03;19.90;;;;;;;;;;5076583;28;20671;-77
2023/12/11 11:58:42;;;;;;;37.23;19.87;;;;;;;;;;5083520;28;20208;-77
2023/12/11 12:02:22;;;;;;;42.07;21.47;;;;;;;;;;5085794;28;20201;-75
2023/12/11 12:05:40;;;;;;;40.73;23.20;;;;;;;;;;5076267;28;20591;-76
2023/12/11 12:08:54;;;;;;;47.40;25.70;;;;;;;;;;5081063;28;20193;-76
2023/12/11 12:11:55;;;;;;;87.80;47.30;;;;;;;;;;5079140;28;20188;-76
2023/12/11 12:15:14;;;;;;;59.90;33.70;;;;;;;;;;5093661;28;20202;-76
2023/12/11 12:18:17;;;;;;;37.60;20.10;;;;;;;;;;5079686;28;20165;-76
2023/12/11 12:59:39;;;;;;;34.67;17.83;;;;;;;;;;4897282;28;20477;-77
2023/12/11 13:02:16;;;;;;;55.43;19.27;;;;;;;;;;5075937;28;20205;-77
2023/12/11 13:04:54;;;;;;;35.60;17.17;;;;;;;;;;5075341;28;20624;-76
2023/12/11 13:07:23;;;;;;;33.57;17.57;;;;;;;;;;5077146;28;20197;-76
2023/12/11 13:09:51;;;;;;;34.00;17.00;;;;;;;;;;5097377;28;20458;-76
2023/12/11 13:12:18;;;;;;;40.50;18.97;;;;;;;;;;5097964;28;20460;-77
2023/12/11 13:15:04;;;;;;;38.50;19.63;;;;;;;;;;5097303;28;20384;-76
2023/12/11 13:17:30;;;;;;;38.20;20.13;;;;;;;;;;5097566;28;20420;-76
2023/12/11 13:20:14;;;;;;;49.43;21.57;;;;;;;;;;5079847;28;20161;-75
2023/12/11 13:22:41;;;;;;;47.33;21.57;;;;;;;;;;5096047;28;20209;-76
2023/12/11 13:25:08;;;;;;;41.70;20.63;;;;;;;;;;5096200;28;20193;-71
2023/12/11 13:27:35;;;;;;;59.60;18.70;;;;;;;;;;5097515;28;20231;-75
2023/12/11 13:30:03;;;;;;;59.53;22.63;;;;;;;;;;5079563;28;20480;-75
2023/12/11 13:32:34;;;;;;;61.97;26.50;;;;;;;;;;5097914;28;20253;-75
2023/12/11 13:35:00;;;;;;;66.33;29.03;;;;;;;;;;5097137;28;20419;-76
2023/12/11 13:37:27;;;;;;;61.43;23.87;;;;;;;;;;5096451;28;20216;-76
2023/12/11 13:40:12;;;;;;;56.37;23.87;;;;;;;;;;5082139;28;20782;-76
2023/12/11 13:42:39;;;;;;;61.83;28.47;;;;;;;;;;5097510;28;20446;-76
2023/12/11 13:45:06;;;;;;;58.57;26.97;;;;;;;;;;5097410;28;20435;-75
2023/12/11 13:47:34;;;;;;;69.07;28.83;;;;;;;;;;5097040;28;20644;-75
2023/12/11 13:50:01;;;;;;;51.87;23.87;;;;;;;;;;5079862;28;20185;-76
2023/12/11 13:52:28;;;;;;;55.17;27.20;;;;;;;;;;5097372;28;20427;-75
2023/12/11 13:54:55;;;;;;;53.20;25.93;;;;;;;;;;5097115;28;20459;-75
2023/12/11 13:57:22;;;;;;;52.10;24.63;;;;;;;;;;5078936;28;20431;-75
2023/12/11 13:59:49;;;;;;;62.57;28.13;;;;;;;;;;5078550;28;20534;-75
2023/12/11 14:02:16;;;;;;;50.20;24.80;;;;;;;;;;5096925;28;20193;-75
2023/12/11 14:05:03;;;;;;;52.13;24.10;;;;;;;;;;5096909;28;20415;-75
2023/12/11 14:07:31;;;;;;;48.20;23.87;;;;;;;;;;5096793;28;20193;-75
2023/12/11 14:09:59;;;;;;;47.40;23.40;;;;;;;;;;5079799;28;20251;-76
2023/12/11 14:12:25;;;;;;;54.37;23.87;;;;;;;;;;5095076;28;20830;-76
2023/12/11 14:14:52;;;;;;;47.67;23.23;;;;;;;;;;5096307;28;20423;-76
2023/12/11 14:17:19;;;;;;;43.27;22.03;;;;;;;;;;5078792;28;20282;-77
2023/12/11 14:19:46;;;;;;;43.77;23.67;;;;;;;;;;5076583;28;20206;-76
2023/12/11 14:22:13;;;;;;;75.43;30.47;;;;;;;;;;5096514;28;20459;-76
2023/12/11 14:24:40;;;;;;;60.33;27.50;;;;;;;;;;5078539;28;20185;-76
2023/12/11 14:27:10;;;;;;;52.10;23.67;;;;;;;;;;5079423;28;20177;-76
2023/12/11 14:29:37;;;;;;;53.67;24.83;;;;;;;;;;5096379;28;20844;-76
2023/12/11 14:32:04;;;;;;;51.07;23.97;;;;;;;;;;5062282;28;20763;-76
2023/12/11 14:34:31;;;;;;;49.20;24.90;;;;;;;;;;5078460;28;20231;-77
2023/12/11 14:37:16;;;;;;;53.73;24.37;;;;;;;;;;5095190;28;20411;-76
2023/12/11 14:39:43;;;;;;;167.93;43.83;;;;;;;;;;5077833;28;20898;-76
2023/12/11 14:42:10;;;;;;;123.27;40.37;;;;;;;;;;5077937;28;20463;-75
2023/12/11 14:44:39;;;;;;;68.60;28.63;;;;;;;;;;5096276;28;20739;-75
2023/12/11 14:47:06;;;;;;;54.93;26.60;;;;;;;;;;5061243;28;20173;-76
2023/12/11 14:49:33;;;;;;;61.23;27.30;;;;;;;;;;5045005;28;20235;-76
2023/12/11 14:52:00;;;;;;;86.47;34.00;;;;;;;;;;5078213;28;20431;-77
2023/12/11 14:54:26;;;;;;;58.53;27.07;;;;;;;;;;5095456;28;20181;-77
2023/12/11 14:56:54;;;;;;;59.57;27.00;;;;;;;;;;5077542;28;20185;-78
2023/12/11 14:59:20;;;;;;;59.23;26.87;;;;;;;;;;5077580;28;20221;-77
2023/12/11 15:01:47;;;;;;;61.30;27.63;;;;;;;;;;5077228;28;20429;-78
2023/12/11 15:04:14;;;;;;;53.73;25.40;;;;;;;;;;5095454;28;20788;-77
2023/12/11 15:06:41;;;;;;;60.43;26.17;;;;;;;;;;5077238;28;20431;-77
2023/12/11 15:09:08;;;;;;;58.00;24.13;;;;;;;;;;5095101;28;20216;-77
2023/12/11 15:11:52;;;;;;;59.23;26.63;;;;;;;;;;5094013;28;20407;-77
2023/12/11 15:14:19;;;;;;;50.83;26.47;;;;;;;;;;5094966;28;20412;-78
2023/12/11 15:20:46;;;;;;;61.37;27.10;;;;;;;;;;5075103;28;20450;-77
2023/12/11 15:23:12;;;;;;;57.00;28.33;;;;;;;;;;5056675;28;20455;-77
2023/12/11 15:29:39;;;;;;;61.47;29.43;;;;;;;;;;5094726;28;20172;-77
2023/12/11 15:32:06;;;;;;;67.20;30.40;;;;;;;;;;5076119;28;20246;-77
2023/12/11 15:34:33;;;;;;;58.10;27.80;;;;;;;;;;5074994;28;20432;-78
2023/12/11 15:41:00;;;;;;;52.87;26.87;;;;;;;;;;5094480;28;20358;-77
2023/12/11 15:43:27;;;;;;;60.27;29.47;;;;;;;;;;5076763;28;20457;-77
2023/12/11 15:46:11;;;;;;;59.67;28.80;;;;;;;;;;5079022;28;20399;-77
2023/12/11 15:48:43;;;;;;;54.87;27.77;;;;;;;;;;5060029;28;20469;-77
2023/12/11 15:51:27;;;;;;;59.40;30.07;;;;;;;;;;5079708;28;20437;-77
2023/12/11 15:53:54;;;;;;;57.40;29.63;;;;;;;;;;5059843;28;20418;-77
2023/12/11 15:56:38;;;;;;;57.77;29.43;;;;;;;;;;5076010;28;20162;-77
2023/12/11 15:59:05;;;;;;;64.37;32.40;;;;;;;;;;5074183;28;20210;-77
2023/12/11 16:01:49;;;;;;;59.83;31.33;;;;;;;;;;5059504;28;20381;-77
2023/12/11 16:04:16;;;;;;;64.70;32.00;;;;;;;;;;5074304;28;20413;-78
2023/12/11 16:06:43;;;;;;;60.60;29.93;;;;;;;;;;5072622;28;20435;-77
2023/12/11 16:09:10;;;;;;;61.30;31.37;;;;;;;;;;5074120;28;20412;-78
2023/12/11 16:11:38;;;;;;;58.33;30.50;;;;;;;;;;5073759;28;20935;-77
2023/12/11 16:14:22;;;;;;;95.53;46.10;;;;;;;;;;5074248;28;20435;-78
2023/12/11 16:16:49;;;;;;;74.33;38.07;;;;;;;;;;5055863;28;20436;-77
2023/12/11 16:19:34;;;;;;;73.20;35.80;;;;;;;;;;5074002;28;20453;-78
2023/12/11 16:22:01;;;;;;;71.93;36.27;;;;;;;;;;5072439;28;20428;-78